sensor_id;sensor_type;location;lat;lon;timestamp;P1;durP1;ratioP1;P2;durP2;ratioP2
14778;SDS011;7481;53.750;10.570;2022-09-09T00:01:51;38.20;;;28.50;;
14778;SDS011;7481;53.750;10.570;2022-09-09T00:07:49;37.03;;;25.67;;
14778;SDS011;7481;53.750;10.570;2022-09-09T00:10:38;33.13;;;25.07;;
14778;SDS011;7481;53.750;10.570;2022-09-09T00:13:30;33.50;;;24.70;;
14778;SDS011;7481;53.750;10.570;2022-09-09T00:16:32;35.77;;;25.27;;
14778;SDS011;7481;53.750;10.570;2022-09-09T00:22:27;32.33;;;23.93;;
14778;SDS011;7481;53.750;10.570;2022-09-09T00:25:19;33.90;;;23.67;;
14778;SDS011;7481;53.750;10.570;2022-09-09T00:28:17;33.27;;;24.87;;
14778;SDS011;7481;53.750;10.570;2022-09-09T00:31:13;29.83;;;23.07;;
14778;SDS011;7481;53.750;10.570;2022-09-09T00:34:11;28.07;;;22.23;;
14778;SDS011;7481;53.750;10.570;2022-09-09T00:37:02;28.00;;;21.93;;
14778;SDS011;7481;53.750;10.570;2022-09-09T00:39:49;33.93;;;24.30;;
14778;SDS011;7481;53.750;10.570;2022-09-09T00:42:42;29.37;;;22.27;;
14778;SDS011;7481;53.750;10.570;2022-09-09T00:45:38;29.40;;;21.90;;
14778;SDS011;7481;53.750;10.570;2022-09-09T00:57:36;28.40;;;21.17;;
14778;SDS011;7481;53.750;10.570;2022-09-09T01:03:21;31.07;;;21.10;;
14778;SDS011;7481;53.750;10.570;2022-09-09T01:06:30;29.33;;;21.63;;
14778;SDS011;7481;53.750;10.570;2022-09-09T01:09:38;29.67;;;21.23;;
14778;SDS011;7481;53.750;10.570;2022-09-09T01:12:46;29.23;;;21.90;;
14778;SDS011;7481;53.750;10.570;2022-09-09T01:15:34;34.27;;;23.77;;
14778;SDS011;7481;53.750;10.570;2022-09-09T01:18:23;33.30;;;24.33;;
14778;SDS011;7481;53.750;10.570;2022-09-09T01:24:22;32.20;;;21.47;;
14778;SDS011;7481;53.750;10.570;2022-09-09T01:27:17;25.80;;;19.63;;
14778;SDS011;7481;53.750;10.570;2022-09-09T01:30:13;29.30;;;21.37;;
14778;SDS011;7481;53.750;10.570;2022-09-09T01:33:02;34.07;;;23.03;;
14778;SDS011;7481;53.750;10.570;2022-09-09T01:35:52;27.90;;;21.23;;
14778;SDS011;7481;53.750;10.570;2022-09-09T01:38:47;34.60;;;22.00;;
14778;SDS011;7481;53.750;10.570;2022-09-09T01:41:34;28.50;;;21.17;;
14778;SDS011;7481;53.750;10.570;2022-09-09T01:44:21;32.77;;;21.70;;
14778;SDS011;7481;53.750;10.570;2022-09-09T01:47:08;27.77;;;21.93;;
14778;SDS011;7481;53.750;10.570;2022-09-09T01:49:56;27.23;;;20.67;;
14778;SDS011;7481;53.750;10.570;2022-09-09T01:52:43;26.60;;;20.70;;
14778;SDS011;7481;53.750;10.570;2022-09-09T01:55:40;27.13;;;21.17;;
14778;SDS011;7481;53.750;10.570;2022-09-09T02:04:56;28.80;;;21.73;;
14778;SDS011;7481;53.750;10.570;2022-09-09T02:10:21;26.37;;;19.47;;
14778;SDS011;7481;53.750;10.570;2022-09-09T02:13:13;27.10;;;20.57;;
14778;SDS011;7481;53.750;10.570;2022-09-09T02:21:55;23.17;;;18.50;;
14778;SDS011;7481;53.750;10.570;2022-09-09T02:24:45;25.93;;;19.20;;
14778;SDS011;7481;53.750;10.570;2022-09-09T02:27:33;24.60;;;18.70;;
14778;SDS011;7481;53.750;10.570;2022-09-09T02:30:21;24.93;;;19.80;;
14778;SDS011;7481;53.750;10.570;2022-09-09T02:33:08;27.45;;;20.08;;
14778;SDS011;7481;53.750;10.570;2022-09-09T02:35:58;22.50;;;18.87;;
14778;SDS011;7481;53.750;10.570;2022-09-09T02:38:49;26.30;;;19.97;;
14778;SDS011;7481;53.750;10.570;2022-09-09T02:41:40;24.80;;;18.30;;
14778;SDS011;7481;53.750;10.570;2022-09-09T02:44:28;25.60;;;19.30;;
14778;SDS011;7481;53.750;10.570;2022-09-09T02:50:47;26.90;;;20.33;;
14778;SDS011;7481;53.750;10.570;2022-09-09T02:53:59;25.20;;;19.20;;
14778;SDS011;7481;53.750;10.570;2022-09-09T03:00:14;23.23;;;18.17;;
14778;SDS011;7481;53.750;10.570;2022-09-09T03:03:02;28.00;;;18.90;;
14778;SDS011;7481;53.750;10.570;2022-09-09T03:05:50;25.10;;;19.00;;
14778;SDS011;7481;53.750;10.570;2022-09-09T03:08:37;24.07;;;19.00;;
14778;SDS011;7481;53.750;10.570;2022-09-09T03:11:24;20.77;;;16.87;;
14778;SDS011;7481;53.750;10.570;2022-09-09T03:14:11;25.45;;;18.73;;
14778;SDS011;7481;53.750;10.570;2022-09-09T03:16:58;23.40;;;18.87;;
14778;SDS011;7481;53.750;10.570;2022-09-09T03:19:47;26.83;;;20.83;;
14778;SDS011;7481;53.750;10.570;2022-09-09T03:22:35;22.60;;;18.77;;
14778;SDS011;7481;53.750;10.570;2022-09-09T03:25:23;27.23;;;19.47;;
14778;SDS011;7481;53.750;10.570;2022-09-09T03:28:11;26.60;;;19.47;;
14778;SDS011;7481;53.750;10.570;2022-09-09T03:30:58;24.77;;;19.70;;
14778;SDS011;7481;53.750;10.570;2022-09-09T03:33:50;21.13;;;17.57;;
14778;SDS011;7481;53.750;10.570;2022-09-09T03:36:37;22.47;;;18.60;;
14778;SDS011;7481;53.750;10.570;2022-09-09T03:39:24;25.10;;;20.27;;
14778;SDS011;7481;53.750;10.570;2022-09-09T03:42:14;24.37;;;18.83;;
14778;SDS011;7481;53.750;10.570;2022-09-09T03:45:06;24.27;;;18.97;;
14778;SDS011;7481;53.750;10.570;2022-09-09T03:47:55;25.63;;;19.80;;
14778;SDS011;7481;53.750;10.570;2022-09-09T03:50:44;27.90;;;19.50;;
14778;SDS011;7481;53.750;10.570;2022-09-09T03:53:38;26.13;;;20.43;;
14778;SDS011;7481;53.750;10.570;2022-09-09T03:56:26;25.50;;;18.40;;
14778;SDS011;7481;53.750;10.570;2022-09-09T03:59:12;26.60;;;19.07;;
14778;SDS011;7481;53.750;10.570;2022-09-09T04:02:00;28.03;;;21.23;;
14778;SDS011;7481;53.750;10.570;2022-09-09T04:04:48;26.00;;;20.60;;
14778;SDS011;7481;53.750;10.570;2022-09-09T04:07:35;24.40;;;20.60;;
14778;SDS011;7481;53.750;10.570;2022-09-09T04:10:22;22.23;;;18.80;;
14778;SDS011;7481;53.750;10.570;2022-09-09T04:13:09;26.30;;;19.83;;
14778;SDS011;7481;53.750;10.570;2022-09-09T04:15:58;25.33;;;19.73;;
14778;SDS011;7481;53.750;10.570;2022-09-09T04:18:46;25.53;;;18.80;;
14778;SDS011;7481;53.750;10.570;2022-09-09T04:21:33;24.57;;;19.00;;
14778;SDS011;7481;53.750;10.570;2022-09-09T04:24:20;24.97;;;21.00;;
14778;SDS011;7481;53.750;10.570;2022-09-09T04:27:07;27.20;;;21.47;;
14778;SDS011;7481;53.750;10.570;2022-09-09T04:29:54;24.07;;;19.13;;
14778;SDS011;7481;53.750;10.570;2022-09-09T04:32:43;25.03;;;19.27;;
14778;SDS011;7481;53.750;10.570;2022-09-09T04:35:29;25.27;;;18.77;;
14778;SDS011;7481;53.750;10.570;2022-09-09T04:38:17;22.87;;;16.80;;
14778;SDS011;7481;53.750;10.570;2022-09-09T04:41:05;28.43;;;21.40;;
14778;SDS011;7481;53.750;10.570;2022-09-09T04:43:52;25.07;;;19.40;;
14778;SDS011;7481;53.750;10.570;2022-09-09T04:46:39;24.80;;;18.57;;
14778;SDS011;7481;53.750;10.570;2022-09-09T04:49:27;26.00;;;20.07;;
14778;SDS011;7481;53.750;10.570;2022-09-09T04:52:14;27.00;;;23.05;;
14778;SDS011;7481;53.750;10.570;2022-09-09T04:55:03;24.60;;;19.10;;
14778;SDS011;7481;53.750;10.570;2022-09-09T04:57:51;23.70;;;19.00;;
14778;SDS011;7481;53.750;10.570;2022-09-09T05:00:38;21.33;;;18.03;;
14778;SDS011;7481;53.750;10.570;2022-09-09T05:03:25;24.07;;;18.23;;
14778;SDS011;7481;53.750;10.570;2022-09-09T05:06:17;22.27;;;19.07;;
14778;SDS011;7481;53.750;10.570;2022-09-09T05:09:06;24.40;;;18.67;;
14778;SDS011;7481;53.750;10.570;2022-09-09T05:11:53;23.00;;;18.60;;
14778;SDS011;7481;53.750;10.570;2022-09-09T05:14:40;23.57;;;18.87;;
14778;SDS011;7481;53.750;10.570;2022-09-09T05:17:27;23.83;;;18.37;;
14778;SDS011;7481;53.750;10.570;2022-09-09T05:20:14;22.87;;;18.43;;
14778;SDS011;7481;53.750;10.570;2022-09-09T05:23:03;28.77;;;17.77;;
14778;SDS011;7481;53.750;10.570;2022-09-09T05:25:56;23.23;;;18.10;;
14778;SDS011;7481;53.750;10.570;2022-09-09T05:28:44;22.10;;;17.90;;
14778;SDS011;7481;53.750;10.570;2022-09-09T05:31:31;20.20;;;16.57;;
14778;SDS011;7481;53.750;10.570;2022-09-09T05:34:19;21.83;;;16.47;;
14778;SDS011;7481;53.750;10.570;2022-09-09T05:37:07;19.57;;;16.67;;
14778;SDS011;7481;53.750;10.570;2022-09-09T05:39:54;20.10;;;16.03;;
14778;SDS011;7481;53.750;10.570;2022-09-09T05:42:41;20.73;;;16.30;;
14778;SDS011;7481;53.750;10.570;2022-09-09T05:45:28;19.23;;;15.50;;
14778;SDS011;7481;53.750;10.570;2022-09-09T05:48:15;22.50;;;15.97;;
14778;SDS011;7481;53.750;10.570;2022-09-09T05:51:02;19.33;;;14.97;;
14778;SDS011;7481;53.750;10.570;2022-09-09T05:53:50;19.90;;;15.33;;
14778;SDS011;7481;53.750;10.570;2022-09-09T05:56:37;17.27;;;14.07;;
14778;SDS011;7481;53.750;10.570;2022-09-09T05:59:25;18.67;;;15.37;;
14778;SDS011;7481;53.750;10.570;2022-09-09T06:02:12;18.67;;;15.37;;
14778;SDS011;7481;53.750;10.570;2022-09-09T06:04:59;15.67;;;13.73;;
14778;SDS011;7481;53.750;10.570;2022-09-09T06:07:46;16.17;;;13.30;;
14778;SDS011;7481;53.750;10.570;2022-09-09T06:10:33;19.10;;;13.87;;
14778;SDS011;7481;53.750;10.570;2022-09-09T06:13:20;22.17;;;15.30;;
14778;SDS011;7481;53.750;10.570;2022-09-09T06:16:15;16.33;;;13.07;;
14778;SDS011;7481;53.750;10.570;2022-09-09T06:19:04;18.67;;;13.30;;
14778;SDS011;7481;53.750;10.570;2022-09-09T06:21:51;14.80;;;12.60;;
14778;SDS011;7481;53.750;10.570;2022-09-09T06:24:38;18.33;;;12.52;;
14778;SDS011;7481;53.750;10.570;2022-09-09T06:27:26;17.03;;;13.10;;
14778;SDS011;7481;53.750;10.570;2022-09-09T06:30:14;17.33;;;12.97;;
14778;SDS011;7481;53.750;10.570;2022-09-09T06:33:01;13.80;;;11.67;;
14778;SDS011;7481;53.750;10.570;2022-09-09T06:35:51;15.40;;;12.07;;
14778;SDS011;7481;53.750;10.570;2022-09-09T06:38:39;13.57;;;10.60;;
14778;SDS011;7481;53.750;10.570;2022-09-09T06:41:27;13.13;;;10.97;;
14778;SDS011;7481;53.750;10.570;2022-09-09T06:44:16;15.20;;;11.40;;
14778;SDS011;7481;53.750;10.570;2022-09-09T06:47:03;15.10;;;10.90;;
14778;SDS011;7481;53.750;10.570;2022-09-09T06:49:50;12.43;;;10.97;;
14778;SDS011;7481;53.750;10.570;2022-09-09T06:52:37;16.40;;;11.90;;
14778;SDS011;7481;53.750;10.570;2022-09-09T06:55:24;14.87;;;9.77;;
14778;SDS011;7481;53.750;10.570;2022-09-09T06:58:10;11.83;;;10.20;;
14778;SDS011;7481;53.750;10.570;2022-09-09T07:01:02;12.40;;;10.38;;
14778;SDS011;7481;53.750;10.570;2022-09-09T07:03:51;13.63;;;10.07;;
14778;SDS011;7481;53.750;10.570;2022-09-09T07:06:40;13.40;;;9.10;;
14778;SDS011;7481;53.750;10.570;2022-09-09T07:09:29;11.03;;;8.90;;
14778;SDS011;7481;53.750;10.570;2022-09-09T07:12:17;11.03;;;9.53;;
14778;SDS011;7481;53.750;10.570;2022-09-09T07:15:04;11.85;;;8.73;;
14778;SDS011;7481;53.750;10.570;2022-09-09T07:17:52;8.63;;;7.63;;
14778;SDS011;7481;53.750;10.570;2022-09-09T07:20:40;8.30;;;7.45;;
14778;SDS011;7481;53.750;10.570;2022-09-09T07:23:27;9.63;;;6.47;;
14778;SDS011;7481;53.750;10.570;2022-09-09T07:26:22;8.23;;;6.55;;
14778;SDS011;7481;53.750;10.570;2022-09-09T07:29:10;7.80;;;7.10;;
14778;SDS011;7481;53.750;10.570;2022-09-09T07:32:06;5.90;;;5.30;;
14778;SDS011;7481;53.750;10.570;2022-09-09T07:34:53;6.63;;;5.93;;
14778;SDS011;7481;53.750;10.570;2022-09-09T07:37:40;5.53;;;4.90;;
14778;SDS011;7481;53.750;10.570;2022-09-09T07:40:27;4.85;;;4.15;;
14778;SDS011;7481;53.750;10.570;2022-09-09T07:43:15;5.07;;;4.25;;
14778;SDS011;7481;53.750;10.570;2022-09-09T07:46:05;4.80;;;4.03;;
14778;SDS011;7481;53.750;10.570;2022-09-09T07:48:53;6.18;;;4.18;;
14778;SDS011;7481;53.750;10.570;2022-09-09T07:51:42;4.30;;;3.80;;
14778;SDS011;7481;53.750;10.570;2022-09-09T07:54:31;4.22;;;3.83;;
14778;SDS011;7481;53.750;10.570;2022-09-09T07:57:19;4.30;;;3.70;;
14778;SDS011;7481;53.750;10.570;2022-09-09T08:00:06;7.28;;;5.93;;
14778;SDS011;7481;53.750;10.570;2022-09-09T08:02:53;4.82;;;4.00;;
14778;SDS011;7481;53.750;10.570;2022-09-09T08:05:40;4.65;;;3.65;;
14778;SDS011;7481;53.750;10.570;2022-09-09T08:08:28;4.20;;;3.80;;
14778;SDS011;7481;53.750;10.570;2022-09-09T08:11:16;5.38;;;4.05;;
14778;SDS011;7481;53.750;10.570;2022-09-09T08:14:03;7.40;;;4.15;;
14778;SDS011;7481;53.750;10.570;2022-09-09T08:16:51;4.70;;;4.30;;
14778;SDS011;7481;53.750;10.570;2022-09-09T08:19:40;5.32;;;4.10;;
14778;SDS011;7481;53.750;10.570;2022-09-09T08:22:27;4.68;;;4.28;;
14778;SDS011;7481;53.750;10.570;2022-09-09T08:25:14;4.60;;;4.20;;
14778;SDS011;7481;53.750;10.570;2022-09-09T08:28:01;7.70;;;4.55;;
14778;SDS011;7481;53.750;10.570;2022-09-09T08:30:49;7.47;;;4.18;;
14778;SDS011;7481;53.750;10.570;2022-09-09T08:33:40;4.30;;;3.70;;
14778;SDS011;7481;53.750;10.570;2022-09-09T08:36:28;4.75;;;3.97;;
14778;SDS011;7481;53.750;10.570;2022-09-09T08:39:18;4.82;;;3.60;;
14778;SDS011;7481;53.750;10.570;2022-09-09T08:45:05;3.28;;;2.80;;
14778;SDS011;7481;53.750;10.570;2022-09-09T08:51:06;3.58;;;2.88;;
14778;SDS011;7481;53.750;10.570;2022-09-09T08:53:53;4.25;;;2.67;;
14778;SDS011;7481;53.750;10.570;2022-09-09T08:56:45;4.53;;;2.63;;
14778;SDS011;7481;53.750;10.570;2022-09-09T08:59:33;3.95;;;2.90;;
14778;SDS011;7481;53.750;10.570;2022-09-09T09:05:23;3.83;;;3.20;;
14778;SDS011;7481;53.750;10.570;2022-09-09T09:08:41;3.13;;;2.83;;
14778;SDS011;7481;53.750;10.570;2022-09-09T09:11:35;5.13;;;2.92;;
14778;SDS011;7481;53.750;10.570;2022-09-09T09:14:35;5.25;;;2.85;;
14778;SDS011;7481;53.750;10.570;2022-09-09T09:17:24;3.28;;;2.58;;
14778;SDS011;7481;53.750;10.570;2022-09-09T09:20:14;5.47;;;2.80;;
14778;SDS011;7481;53.750;10.570;2022-09-09T09:23:03;5.22;;;2.67;;
14778;SDS011;7481;53.750;10.570;2022-09-09T09:25:53;4.50;;;2.53;;
14778;SDS011;7481;53.750;10.570;2022-09-09T09:28:45;6.07;;;2.78;;
14778;SDS011;7481;53.750;10.570;2022-09-09T09:31:32;5.10;;;2.63;;
14778;SDS011;7481;53.750;10.570;2022-09-09T09:34:19;3.55;;;2.47;;
14778;SDS011;7481;53.750;10.570;2022-09-09T09:37:12;2.90;;;2.17;;
14778;SDS011;7481;53.750;10.570;2022-09-09T09:40:16;2.97;;;2.50;;
14778;SDS011;7481;53.750;10.570;2022-09-09T09:43:05;2.97;;;2.25;;
14778;SDS011;7481;53.750;10.570;2022-09-09T09:45:55;2.85;;;2.38;;
14778;SDS011;7481;53.750;10.570;2022-09-09T09:49:04;2.63;;;2.25;;
14778;SDS011;7481;53.750;10.570;2022-09-09T09:51:59;6.40;;;2.40;;
14778;SDS011;7481;53.750;10.570;2022-09-09T09:54:48;2.65;;;2.28;;
14778;SDS011;7481;53.750;10.570;2022-09-09T09:57:35;4.40;;;2.53;;
14778;SDS011;7481;53.750;10.570;2022-09-09T10:00:23;2.63;;;2.25;;
14778;SDS011;7481;53.750;10.570;2022-09-09T10:03:21;3.47;;;2.70;;
14778;SDS011;7481;53.750;10.570;2022-09-09T10:06:10;3.28;;;2.38;;
14778;SDS011;7481;53.750;10.570;2022-09-09T10:08:57;2.63;;;2.40;;
14778;SDS011;7481;53.750;10.570;2022-09-09T10:14:51;2.63;;;2.17;;
14778;SDS011;7481;53.750;10.570;2022-09-09T10:30:30;4.40;;;2.30;;
14778;SDS011;7481;53.750;10.570;2022-09-09T10:36:37;2.55;;;1.88;;
14778;SDS011;7481;53.750;10.570;2022-09-09T10:39:39;4.07;;;2.17;;
14778;SDS011;7481;53.750;10.570;2022-09-09T10:42:30;3.33;;;2.33;;
14778;SDS011;7481;53.750;10.570;2022-09-09T10:45:18;3.35;;;1.98;;
14778;SDS011;7481;53.750;10.570;2022-09-09T10:55:02;3.55;;;1.90;;
14778;SDS011;7481;53.750;10.570;2022-09-09T10:58:18;1.95;;;1.73;;
14778;SDS011;7481;53.750;10.570;2022-09-09T11:01:12;4.65;;;2.03;;
14778;SDS011;7481;53.750;10.570;2022-09-09T11:04:13;2.00;;;1.50;;
14778;SDS011;7481;53.750;10.570;2022-09-09T11:07:06;4.03;;;1.77;;
14778;SDS011;7481;53.750;10.570;2022-09-09T11:10:01;1.85;;;1.50;;
14778;SDS011;7481;53.750;10.570;2022-09-09T11:12:53;2.15;;;1.63;;
14778;SDS011;7481;53.750;10.570;2022-09-09T11:15:50;3.88;;;1.42;;
14778;SDS011;7481;53.750;10.570;2022-09-09T11:19:01;4.63;;;1.58;;
14778;SDS011;7481;53.750;10.570;2022-09-09T11:21:55;3.60;;;1.77;;
14778;SDS011;7481;53.750;10.570;2022-09-09T11:24:49;4.38;;;1.88;;
14778;SDS011;7481;53.750;10.570;2022-09-09T11:31:06;2.22;;;1.30;;
14778;SDS011;7481;53.750;10.570;2022-09-09T11:34:31;3.25;;;1.67;;
14778;SDS011;7481;53.750;10.570;2022-09-09T11:37:44;1.50;;;1.33;;
14778;SDS011;7481;53.750;10.570;2022-09-09T11:40:32;3.38;;;1.58;;
14778;SDS011;7481;53.750;10.570;2022-09-09T11:44:08;2.85;;;1.40;;
14778;SDS011;7481;53.750;10.570;2022-09-09T11:46:35;2.60;;;1.50;;
14778;SDS011;7481;53.750;10.570;2022-09-09T11:49:28;3.63;;;1.65;;
14778;SDS011;7481;53.750;10.570;2022-09-09T11:52:38;1.55;;;1.45;;
14778;SDS011;7481;53.750;10.570;2022-09-09T11:55:33;1.42;;;1.30;;
14778;SDS011;7481;53.750;10.570;2022-09-09T11:58:22;2.25;;;1.40;;
14778;SDS011;7481;53.750;10.570;2022-09-09T12:01:13;2.15;;;1.50;;
14778;SDS011;7481;53.750;10.570;2022-09-09T12:04:17;2.95;;;1.52;;
14778;SDS011;7481;53.750;10.570;2022-09-09T12:10:29;2.65;;;1.35;;
14778;SDS011;7481;53.750;10.570;2022-09-09T12:13:20;3.05;;;1.50;;
14778;SDS011;7481;53.750;10.570;2022-09-09T12:16:26;3.10;;;1.58;;
14778;SDS011;7481;53.750;10.570;2022-09-09T12:19:21;2.28;;;1.42;;
14778;SDS011;7481;53.750;10.570;2022-09-09T12:22:19;2.90;;;1.42;;
14778;SDS011;7481;53.750;10.570;2022-09-09T12:28:22;2.10;;;1.52;;
14778;SDS011;7481;53.750;10.570;2022-09-09T12:31:28;2.28;;;1.25;;
14778;SDS011;7481;53.750;10.570;2022-09-09T12:40:34;1.13;;;1.10;;
14778;SDS011;7481;53.750;10.570;2022-09-09T12:43:22;1.38;;;1.10;;
14778;SDS011;7481;53.750;10.570;2022-09-09T12:46:14;1.73;;;1.33;;
14778;SDS011;7481;53.750;10.570;2022-09-09T12:49:23;1.73;;;1.00;;
14778;SDS011;7481;53.750;10.570;2022-09-09T12:52:35;1.67;;;1.20;;
14778;SDS011;7481;53.750;10.570;2022-09-09T12:55:27;3.85;;;1.45;;
14778;SDS011;7481;53.750;10.570;2022-09-09T12:58:17;2.15;;;1.50;;
14778;SDS011;7481;53.750;10.570;2022-09-09T13:01:05;4.22;;;1.70;;
14778;SDS011;7481;53.750;10.570;2022-09-09T13:04:16;2.47;;;1.25;;
14778;SDS011;7481;53.750;10.570;2022-09-09T13:07:08;2.22;;;1.38;;
14778;SDS011;7481;53.750;10.570;2022-09-09T13:09:56;2.58;;;1.58;;
14778;SDS011;7481;53.750;10.570;2022-09-09T13:12:45;2.35;;;1.33;;
14778;SDS011;7481;53.750;10.570;2022-09-09T13:15:31;1.52;;;1.40;;
14778;SDS011;7481;53.750;10.570;2022-09-09T13:18:21;1.45;;;1.25;;
14778;SDS011;7481;53.750;10.570;2022-09-09T13:21:09;2.30;;;1.40;;
14778;SDS011;7481;53.750;10.570;2022-09-09T13:23:56;2.67;;;1.42;;
14778;SDS011;7481;53.750;10.570;2022-09-09T13:26:53;2.00;;;1.50;;
14778;SDS011;7481;53.750;10.570;2022-09-09T13:29:50;3.42;;;1.60;;
14778;SDS011;7481;53.750;10.570;2022-09-09T13:32:38;1.83;;;1.60;;
14778;SDS011;7481;53.750;10.570;2022-09-09T13:35:26;4.65;;;1.75;;
14778;SDS011;7481;53.750;10.570;2022-09-09T13:38:14;2.58;;;1.75;;
14778;SDS011;7481;53.750;10.570;2022-09-09T13:41:03;4.80;;;1.92;;
14778;SDS011;7481;53.750;10.570;2022-09-09T13:43:52;2.83;;;1.60;;
14778;SDS011;7481;53.750;10.570;2022-09-09T13:46:41;3.10;;;1.90;;
14778;SDS011;7481;53.750;10.570;2022-09-09T13:49:29;4.20;;;2.15;;
14778;SDS011;7481;53.750;10.570;2022-09-09T13:52:17;4.22;;;1.90;;
14778;SDS011;7481;53.750;10.570;2022-09-09T13:55:05;3.25;;;1.60;;
14778;SDS011;7481;53.750;10.570;2022-09-09T14:00:47;4.13;;;2.05;;
14778;SDS011;7481;53.750;10.570;2022-09-09T14:03:34;2.78;;;1.60;;
14778;SDS011;7481;53.750;10.570;2022-09-09T14:06:21;2.78;;;1.80;;
14778;SDS011;7481;53.750;10.570;2022-09-09T14:09:10;2.15;;;1.95;;
14778;SDS011;7481;53.750;10.570;2022-09-09T14:11:58;2.60;;;2.10;;
14778;SDS011;7481;53.750;10.570;2022-09-09T14:14:46;5.72;;;2.33;;
14778;SDS011;7481;53.750;10.570;2022-09-09T14:17:33;3.45;;;2.15;;
14778;SDS011;7481;53.750;10.570;2022-09-09T14:20:22;3.42;;;2.03;;
14778;SDS011;7481;53.750;10.570;2022-09-09T14:23:10;6.85;;;2.58;;
14778;SDS011;7481;53.750;10.570;2022-09-09T14:25:58;3.80;;;2.38;;
14778;SDS011;7481;53.750;10.570;2022-09-09T14:28:45;3.67;;;2.40;;
14778;SDS011;7481;53.750;10.570;2022-09-09T14:31:41;5.70;;;3.03;;
14778;SDS011;7481;53.750;10.570;2022-09-09T14:34:28;3.70;;;2.50;;
14778;SDS011;7481;53.750;10.570;2022-09-09T14:37:15;5.25;;;2.50;;
14778;SDS011;7481;53.750;10.570;2022-09-09T14:40:03;6.20;;;2.70;;
14778;SDS011;7481;53.750;10.570;2022-09-09T14:42:50;4.53;;;2.85;;
14778;SDS011;7481;53.750;10.570;2022-09-09T14:45:39;3.35;;;2.50;;
14778;SDS011;7481;53.750;10.570;2022-09-09T14:48:26;3.97;;;2.38;;
14778;SDS011;7481;53.750;10.570;2022-09-09T14:51:14;4.13;;;2.70;;
14778;SDS011;7481;53.750;10.570;2022-09-09T14:54:06;3.53;;;2.47;;
14778;SDS011;7481;53.750;10.570;2022-09-09T14:56:53;4.32;;;2.47;;
14778;SDS011;7481;53.750;10.570;2022-09-09T14:59:40;3.45;;;2.30;;
14778;SDS011;7481;53.750;10.570;2022-09-09T15:02:27;4.55;;;2.03;;
14778;SDS011;7481;53.750;10.570;2022-09-09T15:05:16;1.90;;;1.80;;
14778;SDS011;7481;53.750;10.570;2022-09-09T15:08:03;3.00;;;2.33;;
14778;SDS011;7481;53.750;10.570;2022-09-09T15:10:50;4.05;;;2.17;;
14778;SDS011;7481;53.750;10.570;2022-09-09T15:13:37;3.78;;;2.15;;
14778;SDS011;7481;53.750;10.570;2022-09-09T15:16:26;3.78;;;1.95;;
14778;SDS011;7481;53.750;10.570;2022-09-09T15:19:14;3.00;;;1.90;;
14778;SDS011;7481;53.750;10.570;2022-09-09T15:22:01;1.95;;;1.70;;
14778;SDS011;7481;53.750;10.570;2022-09-09T15:24:48;3.80;;;2.33;;
14778;SDS011;7481;53.750;10.570;2022-09-09T15:27:35;3.72;;;2.00;;
14778;SDS011;7481;53.750;10.570;2022-09-09T15:30:25;3.78;;;1.92;;
14778;SDS011;7481;53.750;10.570;2022-09-09T15:33:11;2.35;;;2.00;;
14778;SDS011;7481;53.750;10.570;2022-09-09T15:35:59;2.60;;;1.70;;
14778;SDS011;7481;53.750;10.570;2022-09-09T15:38:46;2.33;;;1.90;;
14778;SDS011;7481;53.750;10.570;2022-09-09T15:41:34;2.50;;;2.03;;
14778;SDS011;7481;53.750;10.570;2022-09-09T15:44:20;5.22;;;2.30;;
14778;SDS011;7481;53.750;10.570;2022-09-09T15:47:11;3.03;;;1.67;;
14778;SDS011;7481;53.750;10.570;2022-09-09T15:49:59;2.13;;;1.90;;
14778;SDS011;7481;53.750;10.570;2022-09-09T15:52:46;4.05;;;1.90;;
14778;SDS011;7481;53.750;10.570;2022-09-09T15:55:33;5.75;;;2.10;;
14778;SDS011;7481;53.750;10.570;2022-09-09T15:58:20;4.00;;;2.10;;
14778;SDS011;7481;53.750;10.570;2022-09-09T16:01:08;4.43;;;2.40;;
14778;SDS011;7481;53.750;10.570;2022-09-09T16:03:57;5.63;;;2.30;;
14778;SDS011;7481;53.750;10.570;2022-09-09T16:06:46;2.75;;;1.98;;
14778;SDS011;7481;53.750;10.570;2022-09-09T16:09:33;3.70;;;2.58;;
14778;SDS011;7481;53.750;10.570;2022-09-09T16:12:21;3.40;;;2.50;;
14778;SDS011;7481;53.750;10.570;2022-09-09T16:15:08;6.13;;;2.60;;
14778;SDS011;7481;53.750;10.570;2022-09-09T16:17:55;2.75;;;2.45;;
14778;SDS011;7481;53.750;10.570;2022-09-09T16:20:42;5.28;;;2.80;;
14778;SDS011;7481;53.750;10.570;2022-09-09T16:23:29;4.07;;;2.45;;
14778;SDS011;7481;53.750;10.570;2022-09-09T16:26:16;4.35;;;2.50;;
14778;SDS011;7481;53.750;10.570;2022-09-09T16:29:04;4.38;;;2.33;;
14778;SDS011;7481;53.750;10.570;2022-09-09T16:31:51;3.63;;;2.17;;
14778;SDS011;7481;53.750;10.570;2022-09-09T16:34:38;2.65;;;2.00;;
14778;SDS011;7481;53.750;10.570;2022-09-09T17:14:57;2.45;;;2.10;;
14778;SDS011;7481;53.750;10.570;2022-09-09T17:17:46;3.90;;;2.50;;
14778;SDS011;7481;53.750;10.570;2022-09-09T17:20:36;4.57;;;2.75;;
14778;SDS011;7481;53.750;10.570;2022-09-09T17:23:32;5.38;;;2.38;;
14778;SDS011;7481;53.750;10.570;2022-09-09T17:26:25;4.43;;;2.17;;
14778;SDS011;7481;53.750;10.570;2022-09-09T17:29:14;4.20;;;2.20;;
14778;SDS011;7481;53.750;10.570;2022-09-09T17:32:01;3.80;;;2.35;;
14778;SDS011;7481;53.750;10.570;2022-09-09T17:34:48;2.35;;;2.15;;
14778;SDS011;7481;53.750;10.570;2022-09-09T17:37:35;3.05;;;2.42;;
14778;SDS011;7481;53.750;10.570;2022-09-09T17:40:22;5.22;;;2.50;;
14778;SDS011;7481;53.750;10.570;2022-09-09T17:43:09;3.33;;;2.17;;
14778;SDS011;7481;53.750;10.570;2022-09-09T17:46:04;3.45;;;2.40;;
14778;SDS011;7481;53.750;10.570;2022-09-09T17:48:57;3.90;;;2.40;;
14778;SDS011;7481;53.750;10.570;2022-09-09T17:51:45;5.88;;;2.50;;
14778;SDS011;7481;53.750;10.570;2022-09-09T17:54:32;3.25;;;2.50;;
14778;SDS011;7481;53.750;10.570;2022-09-09T17:57:19;4.18;;;2.38;;
14778;SDS011;7481;53.750;10.570;2022-09-09T18:00:08;4.22;;;2.20;;
14778;SDS011;7481;53.750;10.570;2022-09-09T18:02:56;3.75;;;2.20;;
14778;SDS011;7481;53.750;10.570;2022-09-09T18:05:43;3.83;;;2.97;;
14778;SDS011;7481;53.750;10.570;2022-09-09T18:08:31;5.43;;;2.35;;
14778;SDS011;7481;53.750;10.570;2022-09-09T18:11:23;2.72;;;1.98;;
14778;SDS011;7481;53.750;10.570;2022-09-09T18:14:13;4.35;;;2.20;;
14778;SDS011;7481;53.750;10.570;2022-09-09T18:17:10;3.65;;;2.38;;
14778;SDS011;7481;53.750;10.570;2022-09-09T18:19:58;3.00;;;2.40;;
14778;SDS011;7481;53.750;10.570;2022-09-09T18:22:44;7.00;;;3.08;;
14778;SDS011;7481;53.750;10.570;2022-09-09T18:25:36;3.33;;;2.50;;
14778;SDS011;7481;53.750;10.570;2022-09-09T18:28:26;3.50;;;2.80;;
14778;SDS011;7481;53.750;10.570;2022-09-09T18:31:14;4.50;;;3.30;;
14778;SDS011;7481;53.750;10.570;2022-09-09T18:34:03;4.80;;;3.33;;
14778;SDS011;7481;53.750;10.570;2022-09-09T18:36:51;3.55;;;3.00;;
14778;SDS011;7481;53.750;10.570;2022-09-09T18:39:40;5.30;;;3.28;;
14778;SDS011;7481;53.750;10.570;2022-09-09T18:42:27;5.10;;;3.90;;
14778;SDS011;7481;53.750;10.570;2022-09-09T18:45:14;3.38;;;3.05;;
14778;SDS011;7481;53.750;10.570;2022-09-09T18:48:01;4.60;;;3.72;;
14778;SDS011;7481;53.750;10.570;2022-09-09T18:50:48;6.95;;;3.60;;
14778;SDS011;7481;53.750;10.570;2022-09-09T18:53:35;4.05;;;3.65;;
14778;SDS011;7481;53.750;10.570;2022-09-09T18:56:22;6.10;;;3.42;;
14778;SDS011;7481;53.750;10.570;2022-09-09T18:59:11;3.30;;;2.63;;
14778;SDS011;7481;53.750;10.570;2022-09-09T19:02:00;4.85;;;3.53;;
14778;SDS011;7481;53.750;10.570;2022-09-09T19:04:47;5.82;;;3.50;;
14778;SDS011;7481;53.750;10.570;2022-09-09T19:07:35;5.50;;;3.50;;
14778;SDS011;7481;53.750;10.570;2022-09-09T19:10:41;5.68;;;3.72;;